RJTY/OKO METAR and TAF weather

Enter ICAO airport designator
Station Type Date Time Source
RJTY METAR 2022/12/04 05:55 UTC NOAA

RJTY 040555Z 00000KT 10SM BKN140 17/M01 A3000 RMK AO2A SLP164 T01661011 10167 20082 55002


Station Type Date Time Source
RJTY Decoded METAR 2022/12/04 05:55 UTC NOAA

Yokota Ab, Japan (RJTY) 35-45N 139-21E 142M
Dec 04, 2022 - 12:55 AM EST / 2022.12.04 0555 UTC
Wind: Calm:0
Visibility: 10 mile(s):0
Sky conditions: mostly cloudy
Temperature: 61.9 F (16.6 C)
Dew Point: 30.0 F (-1.1 C)
Relative Humidity: 29%
Pressure (altimeter): 30 in. Hg (1015 hPa)
Pressure tendency: 0.01 inches (0.2 hPa) lower than three hours ago
ob: RJTY 040555Z 00000KT 10SM BKN140 17/M01 A3000 RMK AO2A SLP164 T01661011 10167 20082 55002
cycle: 6

Station Type Date Time Source
RJTY TAF 2022/12/04 05:03 UTC NOAA

TAF TAF RJTY 040500Z 0405/0511 16006KT 9999 BKN080 QNH3001INS
BECMG 0417/0418 01006KT 9999 BKN040 QNH3013INS
BECMG 0422/0423 03006KT 9000 -RA FEW010 BKN020 QNH3014INS TX16/0405Z TN02/0421Z

Example: see airport list